sensor_id;sensor_type;location;lat;lon;timestamp;pressure;altitude;pressure_sealevel;temperature;humidity
49709;BME280;35601;55.902;13.606;2023-01-26T00:00:47;101334.84;;;-2.13;87.82
49709;BME280;35601;55.902;13.606;2023-01-26T00:03:12;101329.13;;;-1.88;87.78
49709;BME280;35601;55.902;13.606;2023-01-26T00:05:38;101327.37;;;-2.03;87.67
49709;BME280;35601;55.902;13.606;2023-01-26T00:08:05;101323.79;;;-1.94;87.25
49709;BME280;35601;55.902;13.606;2023-01-26T00:10:29;101321.83;;;-2.12;86.84
49709;BME280;35601;55.902;13.606;2023-01-26T00:12:54;101318.33;;;-1.82;86.80
49709;BME280;35601;55.902;13.606;2023-01-26T00:15:20;101315.92;;;-1.94;87.08
49709;BME280;35601;55.902;13.606;2023-01-26T00:17:45;101316.08;;;-1.94;87.12
49709;BME280;35601;55.902;13.606;2023-01-26T00:20:11;101314.59;;;-1.90;86.99
49709;BME280;35601;55.902;13.606;2023-01-26T00:22:36;101315.63;;;-2.11;86.78
49709;BME280;35601;55.902;13.606;2023-01-26T00:25:01;101316.47;;;-1.78;86.97
49709;BME280;35601;55.902;13.606;2023-01-26T00:27:27;101321.14;;;-1.92;86.64
49709;BME280;35601;55.902;13.606;2023-01-26T00:29:52;101320.01;;;-1.80;86.47
49709;BME280;35601;55.902;13.606;2023-01-26T00:32:17;101319.81;;;-1.98;86.26
49709;BME280;35601;55.902;13.606;2023-01-26T00:34:43;101320.75;;;-2.13;86.67
49709;BME280;35601;55.902;13.606;2023-01-26T00:37:08;101318.05;;;-1.83;86.28
49709;BME280;35601;55.902;13.606;2023-01-26T00:39:34;101313.55;;;-2.06;86.29
49709;BME280;35601;55.902;13.606;2023-01-26T00:41:59;101311.48;;;-1.96;86.17
49709;BME280;35601;55.902;13.606;2023-01-26T00:44:24;101309.19;;;-1.91;86.01
49709;BME280;35601;55.902;13.606;2023-01-26T00:46:49;101309.38;;;-1.79;85.66
49709;BME280;35601;55.902;13.606;2023-01-26T00:49:15;101306.86;;;-1.84;85.64
49709;BME280;35601;55.902;13.606;2023-01-26T00:51:40;101304.66;;;-1.80;85.73
49709;BME280;35601;55.902;13.606;2023-01-26T00:54:06;101307.21;;;-1.77;85.59
49709;BME280;35601;55.902;13.606;2023-01-26T00:56:32;101305.23;;;-1.73;85.64
49709;BME280;35601;55.902;13.606;2023-01-26T00:58:57;101304.09;;;-1.69;85.39
49709;BME280;35601;55.902;13.606;2023-01-26T01:01:23;101299.90;;;-1.70;85.52
49709;BME280;35601;55.902;13.606;2023-01-26T01:03:48;101297.71;;;-1.55;85.03
49709;BME280;35601;55.902;13.606;2023-01-26T01:06:13;101295.47;;;-1.59;85.18
49709;BME280;35601;55.902;13.606;2023-01-26T01:08:39;101294.39;;;-1.74;84.88
49709;BME280;35601;55.902;13.606;2023-01-26T01:11:07;101295.24;;;-1.65;84.73
49709;BME280;35601;55.902;13.606;2023-01-26T01:13:30;101297.78;;;-1.73;84.51
49709;BME280;35601;55.902;13.606;2023-01-26T01:15:56;101300.79;;;-1.72;85.54
49709;BME280;35601;55.902;13.606;2023-01-26T01:18:21;101298.58;;;-1.40;85.12
49709;BME280;35601;55.902;13.606;2023-01-26T01:20:46;101291.59;;;-1.67;85.39
49709;BME280;35601;55.902;13.606;2023-01-26T01:23:12;101286.82;;;-1.62;85.56
49709;BME280;35601;55.902;13.606;2023-01-26T01:25:38;101286.32;;;-1.68;85.67
49709;BME280;35601;55.902;13.606;2023-01-26T01:28:04;101288.05;;;-1.96;85.63
49709;BME280;35601;55.902;13.606;2023-01-26T01:30:29;101290.00;;;-1.69;85.66
49709;BME280;35601;55.902;13.606;2023-01-26T01:32:54;101288.37;;;-1.91;85.64
49709;BME280;35601;55.902;13.606;2023-01-26T01:35:19;101287.00;;;-1.46;85.91
49709;BME280;35601;55.902;13.606;2023-01-26T01:37:45;101277.04;;;-1.65;85.78
49709;BME280;35601;55.902;13.606;2023-01-26T01:40:12;101271.68;;;-1.65;85.76
49709;BME280;35601;55.902;13.606;2023-01-26T01:42:36;101264.60;;;-1.76;86.16
49709;BME280;35601;55.902;13.606;2023-01-26T01:47:26;101265.68;;;-1.60;86.22
49709;BME280;35601;55.902;13.606;2023-01-26T01:49:53;101260.23;;;-1.54;85.89
49709;BME280;35601;55.902;13.606;2023-01-26T01:52:20;101261.54;;;-1.63;86.08
49709;BME280;35601;55.902;13.606;2023-01-26T01:54:46;101261.74;;;-1.69;86.56
49709;BME280;35601;55.902;13.606;2023-01-26T01:57:11;101259.79;;;-1.61;86.34
49709;BME280;35601;55.902;13.606;2023-01-26T01:59:34;101258.32;;;-1.58;86.09
49709;BME280;35601;55.902;13.606;2023-01-26T02:01:59;101257.05;;;-1.56;86.08
49709;BME280;35601;55.902;13.606;2023-01-26T02:04:25;101249.87;;;-1.57;86.10
49709;BME280;35601;55.902;13.606;2023-01-26T02:06:52;101247.25;;;-1.80;86.29
49709;BME280;35601;55.902;13.606;2023-01-26T02:09:17;101244.15;;;-1.66;86.72
49709;BME280;35601;55.902;13.606;2023-01-26T02:11:42;101243.35;;;-1.85;86.69
49709;BME280;35601;55.902;13.606;2023-01-26T02:14:08;101243.83;;;-1.56;86.48
49709;BME280;35601;55.902;13.606;2023-01-26T02:16:31;101245.17;;;-1.50;86.32
49709;BME280;35601;55.902;13.606;2023-01-26T02:18:57;101241.50;;;-1.42;86.16
49709;BME280;35601;55.902;13.606;2023-01-26T02:21:23;101232.84;;;-1.41;85.95
49709;BME280;35601;55.902;13.606;2023-01-26T02:23:59;101227.97;;;-1.40;86.12
49709;BME280;35601;55.902;13.606;2023-01-26T02:26:13;101229.68;;;-1.70;86.17
49709;BME280;35601;55.902;13.606;2023-01-26T02:28:39;101228.43;;;-1.43;86.10
49709;BME280;35601;55.902;13.606;2023-01-26T02:31:04;101229.31;;;-1.22;86.00
49709;BME280;35601;55.902;13.606;2023-01-26T02:33:30;101231.04;;;-1.63;86.02
49709;BME280;35601;55.902;13.606;2023-01-26T02:35:54;101234.26;;;-1.44;86.19
49709;BME280;35601;55.902;13.606;2023-01-26T02:38:22;101229.09;;;-1.65;86.01
49709;BME280;35601;55.902;13.606;2023-01-26T02:40:50;101226.52;;;-1.17;86.16
49709;BME280;35601;55.902;13.606;2023-01-26T02:43:10;101222.10;;;-1.44;86.24
49709;BME280;35601;55.902;13.606;2023-01-26T02:45:37;101221.05;;;-1.47;86.35
49709;BME280;35601;55.902;13.606;2023-01-26T02:48:01;101221.77;;;-1.39;86.23
49709;BME280;35601;55.902;13.606;2023-01-26T02:50:27;101221.17;;;-1.35;86.15
49709;BME280;35601;55.902;13.606;2023-01-26T02:52:52;101223.24;;;-1.42;86.11
49709;BME280;35601;55.902;13.606;2023-01-26T02:55:17;101224.91;;;-1.47;86.49
49709;BME280;35601;55.902;13.606;2023-01-26T02:57:44;101224.87;;;-1.75;86.72
49709;BME280;35601;55.902;13.606;2023-01-26T03:00:11;101224.31;;;-1.29;86.77
49709;BME280;35601;55.902;13.606;2023-01-26T03:02:34;101221.82;;;-1.51;86.86
49709;BME280;35601;55.902;13.606;2023-01-26T03:04:59;101219.82;;;-1.42;86.61
49709;BME280;35601;55.902;13.606;2023-01-26T03:07:25;101215.70;;;-1.52;86.85
49709;BME280;35601;55.902;13.606;2023-01-26T03:09:50;101213.29;;;-1.51;86.98
49709;BME280;35601;55.902;13.606;2023-01-26T03:12:16;101211.26;;;-1.70;86.96
49709;BME280;35601;55.902;13.606;2023-01-26T03:14:42;101209.56;;;-1.49;87.00
49709;BME280;35601;55.902;13.606;2023-01-26T03:17:07;101211.31;;;-1.65;86.83
49709;BME280;35601;55.902;13.606;2023-01-26T03:19:32;101212.16;;;-1.46;86.88
49709;BME280;35601;55.902;13.606;2023-01-26T03:21:58;101211.23;;;-1.73;86.84
49709;BME280;35601;55.902;13.606;2023-01-26T03:24:23;101210.96;;;-1.49;86.75
49709;BME280;35601;55.902;13.606;2023-01-26T03:26:48;101207.22;;;-1.48;86.72
49709;BME280;35601;55.902;13.606;2023-01-26T03:29:14;101207.73;;;-1.45;86.90
49709;BME280;35601;55.902;13.606;2023-01-26T03:31:39;101203.58;;;-1.43;86.73
49709;BME280;35601;55.902;13.606;2023-01-26T03:34:05;101200.84;;;-1.55;87.08
49709;BME280;35601;55.902;13.606;2023-01-26T03:36:30;101203.56;;;-1.45;86.86
49709;BME280;35601;55.902;13.606;2023-01-26T03:38:56;101203.58;;;-1.42;86.81
49709;BME280;35601;55.902;13.606;2023-01-26T03:41:22;101200.03;;;-1.73;87.16
49709;BME280;35601;55.902;13.606;2023-01-26T03:43:47;101201.09;;;-1.27;87.24
49709;BME280;35601;55.902;13.606;2023-01-26T03:46:12;101201.20;;;-1.45;87.12
49709;BME280;35601;55.902;13.606;2023-01-26T03:48:38;101201.97;;;-1.61;86.89
49709;BME280;35601;55.902;13.606;2023-01-26T03:51:04;101201.16;;;-1.56;86.80
49709;BME280;35601;55.902;13.606;2023-01-26T03:53:29;101200.27;;;-1.49;86.47
49709;BME280;35601;55.902;13.606;2023-01-26T03:55:55;101200.19;;;-1.27;86.44
49709;BME280;35601;55.902;13.606;2023-01-26T03:58:20;101203.32;;;-1.30;86.55
49709;BME280;35601;55.902;13.606;2023-01-26T04:00:48;101201.39;;;-1.54;86.40
49709;BME280;35601;55.902;13.606;2023-01-26T04:03:11;101198.82;;;-1.30;86.30
49709;BME280;35601;55.902;13.606;2023-01-26T04:05:36;101200.24;;;-1.46;86.30
49709;BME280;35601;55.902;13.606;2023-01-26T04:08:02;101196.04;;;-1.72;86.47
49709;BME280;35601;55.902;13.606;2023-01-26T04:10:27;101196.59;;;-1.53;86.43
49709;BME280;35601;55.902;13.606;2023-01-26T04:12:52;101194.53;;;-1.49;86.29
49709;BME280;35601;55.902;13.606;2023-01-26T04:15:17;101190.23;;;-1.21;86.26
49709;BME280;35601;55.902;13.606;2023-01-26T04:17:43;101191.54;;;-1.66;86.09
49709;BME280;35601;55.902;13.606;2023-01-26T04:20:09;101194.52;;;-1.27;86.26
49709;BME280;35601;55.902;13.606;2023-01-26T04:22:35;101191.47;;;-1.26;86.32
49709;BME280;35601;55.902;13.606;2023-01-26T04:24:59;101187.36;;;-1.19;86.09
49709;BME280;35601;55.902;13.606;2023-01-26T04:27:25;101186.74;;;-1.52;86.19
49709;BME280;35601;55.902;13.606;2023-01-26T04:29:50;101185.59;;;-1.36;86.43
49709;BME280;35601;55.902;13.606;2023-01-26T04:32:16;101180.31;;;-1.28;86.36
49709;BME280;35601;55.902;13.606;2023-01-26T04:34:41;101173.47;;;-1.27;86.42
49709;BME280;35601;55.902;13.606;2023-01-26T04:37:08;101169.85;;;-1.23;86.22
49709;BME280;35601;55.902;13.606;2023-01-26T04:39:33;101170.96;;;-1.25;86.12
49709;BME280;35601;55.902;13.606;2023-01-26T04:41:58;101167.98;;;-1.17;86.24
49709;BME280;35601;55.902;13.606;2023-01-26T04:44:23;101166.79;;;-1.35;86.13
49709;BME280;35601;55.902;13.606;2023-01-26T04:46:49;101163.47;;;-1.36;85.95
49709;BME280;35601;55.902;13.606;2023-01-26T04:49:14;101156.93;;;-1.47;85.72
49709;BME280;35601;55.902;13.606;2023-01-26T04:51:40;101153.69;;;-1.20;85.38
49709;BME280;35601;55.902;13.606;2023-01-26T04:54:05;101156.43;;;-1.37;85.30
49709;BME280;35601;55.902;13.606;2023-01-26T04:56:33;101158.88;;;-1.14;85.35
49709;BME280;35601;55.902;13.606;2023-01-26T04:58:58;101164.87;;;-1.03;85.07
49709;BME280;35601;55.902;13.606;2023-01-26T05:01:22;101170.33;;;-1.27;85.00
49709;BME280;35601;55.902;13.606;2023-01-26T05:03:47;101173.62;;;-1.19;84.77
49709;BME280;35601;55.902;13.606;2023-01-26T05:06:13;101175.60;;;-1.19;84.61
49709;BME280;35601;55.902;13.606;2023-01-26T05:08:38;101173.76;;;-1.28;84.72
49709;BME280;35601;55.902;13.606;2023-01-26T05:11:03;101167.30;;;-1.37;84.90
49709;BME280;35601;55.902;13.606;2023-01-26T05:13:28;101161.92;;;-1.23;85.54
49709;BME280;35601;55.902;13.606;2023-01-26T05:15:54;101157.47;;;-1.00;85.68
49709;BME280;35601;55.902;13.606;2023-01-26T05:18:19;101156.79;;;-1.57;86.00
49709;BME280;35601;55.902;13.606;2023-01-26T05:20:44;101153.54;;;-1.56;85.96
49709;BME280;35601;55.902;13.606;2023-01-26T05:23:10;101151.78;;;-1.60;86.28
49709;BME280;35601;55.902;13.606;2023-01-26T05:25:35;101154.68;;;-1.12;86.24
49709;BME280;35601;55.902;13.606;2023-01-26T05:28:01;101152.55;;;-1.35;86.18
49709;BME280;35601;55.902;13.606;2023-01-26T05:30:26;101154.80;;;-1.40;86.65
49709;BME280;35601;55.902;13.606;2023-01-26T05:32:51;101151.39;;;-1.15;86.66
49709;BME280;35601;55.902;13.606;2023-01-26T05:35:17;101148.73;;;-1.43;86.66
49709;BME280;35601;55.902;13.606;2023-01-26T05:37:42;101152.91;;;-1.31;87.10
49709;BME280;35601;55.902;13.606;2023-01-26T05:40:09;101152.48;;;-1.25;87.12
49709;BME280;35601;55.902;13.606;2023-01-26T05:42:33;101152.94;;;-2.23;87.36
49709;BME280;35601;55.902;13.606;2023-01-26T05:44:58;101147.67;;;-1.59;86.74
49709;BME280;35601;55.902;13.606;2023-01-26T05:47:24;101147.76;;;-1.49;86.51
49709;BME280;35601;55.902;13.606;2023-01-26T05:49:49;101144.89;;;-0.98;86.27
49709;BME280;35601;55.902;13.606;2023-01-26T05:52:17;101148.24;;;-1.48;86.27
49709;BME280;35601;55.902;13.606;2023-01-26T05:54:40;101148.11;;;-1.27;86.59
49709;BME280;35601;55.902;13.606;2023-01-26T05:57:06;101154.06;;;-1.34;86.71
49709;BME280;35601;55.902;13.606;2023-01-26T05:59:31;101156.26;;;-1.27;86.76
49709;BME280;35601;55.902;13.606;2023-01-26T06:01:57;101158.56;;;-1.46;87.14
49709;BME280;35601;55.902;13.606;2023-01-26T06:04:22;101158.64;;;-1.43;87.30
49709;BME280;35601;55.902;13.606;2023-01-26T06:06:47;101158.27;;;-1.25;87.43
49709;BME280;35601;55.902;13.606;2023-01-26T06:09:13;101153.43;;;-1.33;87.92
49709;BME280;35601;55.902;13.606;2023-01-26T06:11:39;101152.93;;;-1.77;87.91
49709;BME280;35601;55.902;13.606;2023-01-26T06:14:04;101154.55;;;-1.57;87.95
49709;BME280;35601;55.902;13.606;2023-01-26T06:16:30;101159.80;;;-1.27;87.96
49709;BME280;35601;55.902;13.606;2023-01-26T06:18:55;101162.07;;;-1.25;87.87
49709;BME280;35601;55.902;13.606;2023-01-26T06:21:22;101166.08;;;-1.38;87.59
49709;BME280;35601;55.902;13.606;2023-01-26T06:23:47;101167.79;;;-1.44;87.83
49709;BME280;35601;55.902;13.606;2023-01-26T06:26:12;101171.09;;;-1.10;87.43
49709;BME280;35601;55.902;13.606;2023-01-26T06:28:38;101173.13;;;-1.22;86.84
49709;BME280;35601;55.902;13.606;2023-01-26T06:31:05;101174.55;;;-1.18;86.93
49709;BME280;35601;55.902;13.606;2023-01-26T06:33:30;101177.39;;;-1.06;86.53
49709;BME280;35601;55.902;13.606;2023-01-26T06:35:54;101178.72;;;-1.31;86.34
49709;BME280;35601;55.902;13.606;2023-01-26T06:38:20;101181.42;;;-1.29;86.49
49709;BME280;35601;55.902;13.606;2023-01-26T06:40:45;101180.71;;;-1.36;86.72
49709;BME280;35601;55.902;13.606;2023-01-26T06:43:10;101177.26;;;-0.78;86.37
49709;BME280;35601;55.902;13.606;2023-01-26T06:45:36;101178.81;;;-1.27;86.48
49709;BME280;35601;55.902;13.606;2023-01-26T06:48:02;101183.61;;;-1.23;86.33
49709;BME280;35601;55.902;13.606;2023-01-26T06:50:32;101182.31;;;-1.18;86.04
49709;BME280;35601;55.902;13.606;2023-01-26T06:52:55;101178.42;;;-0.84;85.72
49709;BME280;35601;55.902;13.606;2023-01-26T06:55:23;101177.92;;;-1.04;85.64
49709;BME280;35601;55.902;13.606;2023-01-26T06:57:44;101183.16;;;-0.92;85.21
49709;BME280;35601;55.902;13.606;2023-01-26T07:00:11;101187.40;;;-0.83;85.05
49709;BME280;35601;55.902;13.606;2023-01-26T07:02:35;101186.08;;;-0.74;84.85
49709;BME280;35601;55.902;13.606;2023-01-26T07:05:00;101183.66;;;-0.75;84.50
49709;BME280;35601;55.902;13.606;2023-01-26T07:07:25;101191.45;;;-0.73;84.55
49709;BME280;35601;55.902;13.606;2023-01-26T07:09:51;101191.88;;;-0.65;84.49
49709;BME280;35601;55.902;13.606;2023-01-26T07:12:17;101195.71;;;-0.77;84.50
49709;BME280;35601;55.902;13.606;2023-01-26T07:14:42;101198.98;;;-0.85;84.93
49709;BME280;35601;55.902;13.606;2023-01-26T07:17:07;101199.34;;;-1.18;85.25
49709;BME280;35601;55.902;13.606;2023-01-26T07:19:32;101196.88;;;-0.86;85.29
49709;BME280;35601;55.902;13.606;2023-01-26T07:21:58;101199.81;;;-0.81;85.00
49709;BME280;35601;55.902;13.606;2023-01-26T07:24:23;101203.67;;;-0.89;85.01
49709;BME280;35601;55.902;13.606;2023-01-26T07:26:49;101203.74;;;-0.86;85.16
49709;BME280;35601;55.902;13.606;2023-01-26T07:29:14;101201.83;;;-0.91;85.39
49709;BME280;35601;55.902;13.606;2023-01-26T07:31:40;101199.36;;;-0.91;85.75
49709;BME280;35601;55.902;13.606;2023-01-26T07:34:06;101200.38;;;-0.97;85.92
49709;BME280;35601;55.902;13.606;2023-01-26T07:36:31;101202.08;;;-1.00;85.93
49709;BME280;35601;55.902;13.606;2023-01-26T07:38:56;101207.24;;;-0.84;85.51
49709;BME280;35601;55.902;13.606;2023-01-26T07:41:22;101207.34;;;-0.85;85.54
49709;BME280;35601;55.902;13.606;2023-01-26T07:43:48;101211.26;;;-0.85;85.50
49709;BME280;35601;55.902;13.606;2023-01-26T07:46:13;101212.59;;;-0.86;85.54
49709;BME280;35601;55.902;13.606;2023-01-26T07:48:38;101209.03;;;-1.12;86.29
49709;BME280;35601;55.902;13.606;2023-01-26T07:51:04;101210.35;;;-0.92;86.34
49709;BME280;35601;55.902;13.606;2023-01-26T07:53:30;101212.15;;;-0.73;85.56
49709;BME280;35601;55.902;13.606;2023-01-26T07:56:04;101213.77;;;-0.96;85.14
49709;BME280;35601;55.902;13.606;2023-01-26T07:58:20;101218.31;;;-0.60;85.07
49709;BME280;35601;55.902;13.606;2023-01-26T08:00:45;101218.48;;;-0.75;84.98
49709;BME280;35601;55.902;13.606;2023-01-26T08:03:11;101213.90;;;-0.47;84.71
49709;BME280;35601;55.902;13.606;2023-01-26T08:05:36;101215.78;;;-0.46;84.76
49709;BME280;35601;55.902;13.606;2023-01-26T08:08:01;101211.73;;;-0.35;84.11
49709;BME280;35601;55.902;13.606;2023-01-26T08:10:27;101210.49;;;-0.27;84.06
49709;BME280;35601;55.902;13.606;2023-01-26T08:12:52;101215.01;;;-0.82;84.66
49709;BME280;35601;55.902;13.606;2023-01-26T08:15:18;101217.34;;;-0.54;84.44
49709;BME280;35601;55.902;13.606;2023-01-26T08:17:44;101214.64;;;-0.80;86.13
49709;BME280;35601;55.902;13.606;2023-01-26T08:20:10;101218.82;;;-0.71;86.33
49709;BME280;35601;55.902;13.606;2023-01-26T08:22:35;101216.01;;;-0.97;86.97
49709;BME280;35601;55.902;13.606;2023-01-26T08:25:00;101212.69;;;-0.94;88.20
49709;BME280;35601;55.902;13.606;2023-01-26T08:27:25;101217.17;;;-0.97;87.86
49709;BME280;35601;55.902;13.606;2023-01-26T08:29:51;101218.01;;;-1.05;88.72
49709;BME280;35601;55.902;13.606;2023-01-26T08:32:17;101220.89;;;-1.13;89.35
49709;BME280;35601;55.902;13.606;2023-01-26T08:34:42;101226.29;;;-1.09;88.77
49709;BME280;35601;55.902;13.606;2023-01-26T08:37:07;101224.55;;;-1.18;90.05
49709;BME280;35601;55.902;13.606;2023-01-26T08:39:33;101222.44;;;-1.20;90.19
49709;BME280;35601;55.902;13.606;2023-01-26T08:41:59;101223.12;;;-1.04;91.30
49709;BME280;35601;55.902;13.606;2023-01-26T08:44:24;101229.23;;;-0.98;90.10
49709;BME280;35601;55.902;13.606;2023-01-26T08:46:49;101232.66;;;-1.05;90.26
49709;BME280;35601;55.902;13.606;2023-01-26T08:49:14;101223.81;;;-1.05;90.99
49709;BME280;35601;55.902;13.606;2023-01-26T08:51:40;101224.06;;;-1.25;91.17
49709;BME280;35601;55.902;13.606;2023-01-26T08:54:05;101216.35;;;-1.11;90.29
49709;BME280;35601;55.902;13.606;2023-01-26T08:56:30;101219.08;;;-0.93;89.93
49709;BME280;35601;55.902;13.606;2023-01-26T08:58:56;101215.25;;;-0.89;90.48
49709;BME280;35601;55.902;13.606;2023-01-26T09:01:21;101216.49;;;-0.95;91.13
49709;BME280;35601;55.902;13.606;2023-01-26T09:03:47;101211.03;;;-1.07;91.06
49709;BME280;35601;55.902;13.606;2023-01-26T09:06:12;101211.39;;;-0.78;91.04
49709;BME280;35601;55.902;13.606;2023-01-26T09:08:38;101209.64;;;-0.76;91.73
49709;BME280;35601;55.902;13.606;2023-01-26T09:11:05;101211.90;;;-0.92;91.16
49709;BME280;35601;55.902;13.606;2023-01-26T09:13:28;101216.75;;;-0.81;90.99
49709;BME280;35601;55.902;13.606;2023-01-26T09:15:54;101215.78;;;-0.89;91.33
49709;BME280;35601;55.902;13.606;2023-01-26T09:18:19;101220.62;;;-0.56;90.91
49709;BME280;35601;55.902;13.606;2023-01-26T09:20:45;101219.25;;;-0.98;91.65
49709;BME280;35601;55.902;13.606;2023-01-26T09:23:10;101226.09;;;-0.84;91.65
49709;BME280;35601;55.902;13.606;2023-01-26T09:25:36;101220.88;;;-0.89;91.30
49709;BME280;35601;55.902;13.606;2023-01-26T09:28:02;101226.51;;;-0.95;91.21
49709;BME280;35601;55.902;13.606;2023-01-26T09:30:27;101226.66;;;-0.83;91.31
49709;BME280;35601;55.902;13.606;2023-01-26T09:32:57;101223.09;;;-1.13;92.18
49709;BME280;35601;55.902;13.606;2023-01-26T09:35:18;101226.82;;;-0.91;92.65
49709;BME280;35601;55.902;13.606;2023-01-26T09:37:43;101226.47;;;-0.52;92.18
49709;BME280;35601;55.902;13.606;2023-01-26T09:40:15;101214.74;;;-0.87;92.47
49709;BME280;35601;55.902;13.606;2023-01-26T09:42:43;101220.63;;;-1.06;91.93
49709;BME280;35601;55.902;13.606;2023-01-26T09:45:11;101226.35;;;-0.58;91.26
49709;BME280;35601;55.902;13.606;2023-01-26T09:47:30;101224.72;;;-0.64;90.85
49709;BME280;35601;55.902;13.606;2023-01-26T09:49:53;101219.82;;;-0.50;91.22
49709;BME280;35601;55.902;13.606;2023-01-26T09:52:19;101217.00;;;-0.54;91.58
49709;BME280;35601;55.902;13.606;2023-01-26T09:54:44;101221.21;;;-0.67;91.19
49709;BME280;35601;55.902;13.606;2023-01-26T09:57:12;101218.95;;;-0.53;90.67
49709;BME280;35601;55.902;13.606;2023-01-26T09:59:37;101218.05;;;-0.44;90.51
49709;BME280;35601;55.902;13.606;2023-01-26T10:02:00;101219.35;;;-0.42;90.53
49709;BME280;35601;55.902;13.606;2023-01-26T10:04:26;101222.69;;;-0.24;89.35
49709;BME280;35601;55.902;13.606;2023-01-26T10:06:47;101226.51;;;-0.15;88.71
49709;BME280;35601;55.902;13.606;2023-01-26T10:09:16;101219.61;;;0.14;88.25
49709;BME280;35601;55.902;13.606;2023-01-26T10:11:41;101216.56;;;0.25;87.79
49709;BME280;35601;55.902;13.606;2023-01-26T10:14:09;101210.74;;;-0.07;87.47
49709;BME280;35601;55.902;13.606;2023-01-26T10:16:28;101204.41;;;0.16;87.24
49709;BME280;35601;55.902;13.606;2023-01-26T10:18:55;101202.10;;;0.26;86.75
49709;BME280;35601;55.902;13.606;2023-01-26T10:21:20;101203.91;;;0.23;85.98
49709;BME280;35601;55.902;13.606;2023-01-26T10:23:47;101204.91;;;0.44;86.12
49709;BME280;35601;55.902;13.606;2023-01-26T10:26:12;101204.01;;;0.45;85.65
49709;BME280;35601;55.902;13.606;2023-01-26T10:28:35;101207.87;;;0.56;84.83
49709;BME280;35601;55.902;13.606;2023-01-26T10:31:01;101205.83;;;0.72;85.02
49709;BME280;35601;55.902;13.606;2023-01-26T10:33:29;101206.14;;;0.68;84.60
49709;BME280;35601;55.902;13.606;2023-01-26T10:35:51;101201.55;;;0.68;84.53
49709;BME280;35601;55.902;13.606;2023-01-26T10:38:27;101209.57;;;0.56;84.51
49709;BME280;35601;55.902;13.606;2023-01-26T10:40:43;101207.43;;;0.58;84.56
49709;BME280;35601;55.902;13.606;2023-01-26T10:43:15;101214.90;;;0.96;83.83
49709;BME280;35601;55.902;13.606;2023-01-26T10:45:33;101218.08;;;0.83;84.48
49709;BME280;35601;55.902;13.606;2023-01-26T10:48:08;101222.13;;;0.89;83.78
49709;BME280;35601;55.902;13.606;2023-01-26T10:50:24;101225.41;;;0.64;84.09
49709;BME280;35601;55.902;13.606;2023-01-26T10:52:56;101226.14;;;0.75;83.53
49709;BME280;35601;55.902;13.606;2023-01-26T10:55:20;101223.90;;;0.96;83.10
49709;BME280;35601;55.902;13.606;2023-01-26T10:57:41;101221.89;;;0.82;82.89
49709;BME280;35601;55.902;13.606;2023-01-26T11:00:16;101227.20;;;0.46;83.27
49709;BME280;35601;55.902;13.606;2023-01-26T11:02:30;101227.25;;;0.79;83.87
49709;BME280;35601;55.902;13.606;2023-01-26T11:05:03;101234.59;;;0.86;83.70
49709;BME280;35601;55.902;13.606;2023-01-26T11:07:25;101242.16;;;0.33;84.52
49709;BME280;35601;55.902;13.606;2023-01-26T11:09:46;101238.92;;;0.65;84.58
49709;BME280;35601;55.902;13.606;2023-01-26T11:12:17;101234.50;;;0.77;84.05
49709;BME280;35601;55.902;13.606;2023-01-26T11:14:36;101238.56;;;0.70;83.96
49709;BME280;35601;55.902;13.606;2023-01-26T11:17:12;101243.56;;;0.23;84.88
49709;BME280;35601;55.902;13.606;2023-01-26T11:19:41;101242.30;;;0.41;84.60
49709;BME280;35601;55.902;13.606;2023-01-26T11:22:00;101233.85;;;0.61;85.12
49709;BME280;35601;55.902;13.606;2023-01-26T11:24:24;101234.70;;;0.24;85.20
49709;BME280;35601;55.902;13.606;2023-01-26T11:31:44;101230.85;;;0.65;85.84
49709;BME280;35601;55.902;13.606;2023-01-26T11:34:11;101230.02;;;0.58;86.11
49709;BME280;35601;55.902;13.606;2023-01-26T11:36:34;101230.45;;;0.73;85.90
49709;BME280;35601;55.902;13.606;2023-01-26T11:38:59;101229.42;;;0.45;86.41
49709;BME280;35601;55.902;13.606;2023-01-26T11:41:26;101224.08;;;0.78;86.43
49709;BME280;35601;55.902;13.606;2023-01-26T11:43:57;101226.26;;;0.73;86.08
49709;BME280;35601;55.902;13.606;2023-01-26T11:46:21;101229.98;;;0.63;86.44
49709;BME280;35601;55.902;13.606;2023-01-26T11:48:42;101232.62;;;0.51;86.97
49709;BME280;35601;55.902;13.606;2023-01-26T11:51:05;101235.65;;;0.32;87.00
49709;BME280;35601;55.902;13.606;2023-01-26T11:53:37;101238.55;;;0.44;87.09
49709;BME280;35601;55.902;13.606;2023-01-26T11:56:01;101234.33;;;0.38;86.97
49709;BME280;35601;55.902;13.606;2023-01-26T11:58:26;101230.42;;;0.41;87.84
49709;BME280;35601;55.902;13.606;2023-01-26T12:00:44;101226.93;;;0.52;88.00
49709;BME280;35601;55.902;13.606;2023-01-26T12:03:16;101224.14;;;0.29;87.81
49709;BME280;35601;55.902;13.606;2023-01-26T12:05:39;101226.34;;;0.30;87.76
49709;BME280;35601;55.902;13.606;2023-01-26T12:08:02;101230.06;;;0.32;87.72
49709;BME280;35601;55.902;13.606;2023-01-26T12:10:29;101226.36;;;0.33;87.83
49709;BME280;35601;55.902;13.606;2023-01-26T12:12:54;101227.65;;;-0.98;87.75
49709;BME280;35601;55.902;13.606;2023-01-26T12:15:17;101219.42;;;0.21;87.10
49709;BME280;35601;55.902;13.606;2023-01-26T12:17:48;101221.22;;;0.76;86.66
49709;BME280;35601;55.902;13.606;2023-01-26T12:20:17;101224.22;;;0.72;86.82
49709;BME280;35601;55.902;13.606;2023-01-26T12:22:32;101224.23;;;0.74;86.36
49709;BME280;35601;55.902;13.606;2023-01-26T12:25:01;101216.45;;;0.56;86.48
49709;BME280;35601;55.902;13.606;2023-01-26T12:27:25;101215.07;;;0.70;86.60
49709;BME280;35601;55.902;13.606;2023-01-26T12:29:50;101212.01;;;0.95;86.69
49709;BME280;35601;55.902;13.606;2023-01-26T12:32:13;101207.70;;;0.67;86.34
49709;BME280;35601;55.902;13.606;2023-01-26T12:34:37;101206.56;;;0.65;87.05
49709;BME280;35601;55.902;13.606;2023-01-26T12:37:17;101202.77;;;0.70;86.97
49709;BME280;35601;55.902;13.606;2023-01-26T12:39:33;101200.48;;;0.92;87.19